Time;durP1;ratioP1;P1;durP2;ratioP2;P2;SDS_P1;SDS_P2;PMS_P1;PMS_P2;Temp;Humidity;BMP_temperature;BMP_pressure;BME280_temperature;BME280_humidity;BME280_pressure;Samples;Min_cycle;Max_cycle;Signal;HPM_P1;HPM_P2
2023/11/21 00:02:15;;;;;;;23.60;14.15;;;10.10;92.30;;;;;;4992228;28;20038;-38
2023/11/21 00:04:40;;;;;;;28.48;15.57;;;10.10;92.30;;;;;;4992391;28;20062;-37
2023/11/21 00:07:06;;;;;;;24.85;14.88;;;10.10;92.30;;;;;;4992215;28;20031;-37
2023/11/21 00:09:32;;;;;;;23.70;14.02;;;10.00;92.30;;;;;;4992367;28;20030;-36
2023/11/21 00:11:59;;;;;;;24.10;14.40;;;10.00;92.30;;;;;;4992014;28;20137;-38
2023/11/21 00:14:25;;;;;;;28.52;16.30;;;10.00;92.30;;;;;;4992363;28;20134;-37
2023/11/21 00:16:50;;;;;;;30.05;16.65;;;10.00;92.30;;;;;;4991939;28;20053;-34
2023/11/21 00:19:16;;;;;;;29.67;16.42;;;10.00;92.30;;;;;;4991658;28;20475;-38
2023/11/21 00:21:44;;;;;;;25.25;15.13;;;9.90;92.30;;;;;;4991964;28;20026;-34
2023/11/21 00:24:10;;;;;;;27.98;15.95;;;9.90;92.40;;;;;;4992035;28;20101;-38
2023/11/21 00:26:37;;;;;;;27.15;15.27;;;9.90;92.40;;;;;;4992206;28;20023;-37
2023/11/21 00:29:03;;;;;;;23.13;14.82;;;9.90;92.40;;;;;;4991922;28;20046;-33
2023/11/21 00:31:30;;;;;;;27.13;15.63;;;9.90;92.40;;;;;;4991927;28;20026;-36
2023/11/21 00:33:56;;;;;;;26.40;14.32;;;9.90;92.40;;;;;;4991859;28;20029;-34
2023/11/21 00:36:21;;;;;;;27.48;15.50;;;9.90;92.40;;;;;;4992008;28;20030;-36
2023/11/21 00:38:48;;;;;;;24.58;14.07;;;9.90;92.40;;;;;;4991821;28;20031;-35
2023/11/21 00:41:14;;;;;;;24.85;13.32;;;9.90;92.40;;;;;;4991915;28;20490;-31
2023/11/21 00:43:39;;;;;;;20.30;12.38;;;9.90;92.40;;;;;;4991810;28;20053;-37
2023/11/21 00:46:07;;;;;;;25.02;12.57;;;9.90;92.40;;;;;;4991883;28;20463;-34
2023/11/21 00:48:33;;;;;;;20.95;12.35;;;9.90;92.30;;;;;;4991671;28;20062;-35
2023/11/21 00:50:59;;;;;;;19.75;11.82;;;9.90;92.40;;;;;;4990441;28;20069;-36
2023/11/21 00:53:24;;;;;;;19.90;12.07;;;9.90;92.30;;;;;;4991728;28;20038;-38
2023/11/21 00:55:52;;;;;;;20.95;11.55;;;10.00;92.40;;;;;;4991985;28;20014;-35
2023/11/21 00:58:17;;;;;;;20.83;11.65;;;10.00;92.30;;;;;;4991506;28;20046;-37
2023/11/21 01:00:43;;;;;;;17.48;11.30;;;10.00;92.30;;;;;;4991708;28;20543;-39
2023/11/21 01:03:09;;;;;;;20.35;11.48;;;10.00;92.30;;;;;;4991561;28;20306;-35
2023/11/21 01:05:34;;;;;;;21.48;12.20;;;10.10;92.30;;;;;;4991705;28;20105;-33
2023/11/21 01:08:00;;;;;;;21.85;11.75;;;10.00;92.30;;;;;;4992120;28;20026;-33
2023/11/21 01:10:25;;;;;;;20.55;11.85;;;10.10;92.30;;;;;;4995136;28;20588;-38
2023/11/21 01:12:51;;;;;;;18.35;10.95;;;10.10;92.30;;;;;;4994998;28;20035;-34
2023/11/21 01:15:16;;;;;;;20.48;11.85;;;10.10;92.30;;;;;;4995008;28;20109;-36
2023/11/21 01:17:42;;;;;;;17.20;11.27;;;10.10;92.30;;;;;;4994941;28;20031;-34
2023/11/21 01:20:12;;;;;;;19.23;11.23;;;10.10;92.30;;;;;;4994697;28;20386;-32
2023/11/21 01:22:38;;;;;;;17.75;10.55;;;10.10;92.30;;;;;;4994833;28;20494;-43
2023/11/21 01:25:07;;;;;;;16.27;10.88;;;10.10;92.20;;;;;;4995240;28;20026;-40
2023/11/21 01:27:34;;;;;;;18.98;11.30;;;10.10;92.20;;;;;;4994904;28;20486;-34
2023/11/21 01:30:00;;;;;;;18.48;11.02;;;10.10;92.20;;;;;;4994459;28;20046;-38
2023/11/21 01:32:25;;;;;;;19.38;11.52;;;10.10;92.20;;;;;;4994752;28;20465;-35
2023/11/21 01:34:51;;;;;;;25.98;11.43;;;10.10;92.20;;;;;;4994615;28;20037;-32
2023/11/21 01:37:17;;;;;;;18.05;11.30;;;10.10;92.20;;;;;;4994589;28;20220;-32
2023/11/21 01:39:44;;;;;;;19.40;11.55;;;10.10;92.20;;;;;;4994533;28;20479;-37
2023/11/21 01:42:11;;;;;;;23.13;11.55;;;10.10;92.20;;;;;;4994505;28;20027;-35
2023/11/21 01:44:36;;;;;;;17.77;10.73;;;10.10;92.20;;;;;;4994525;28;20030;-33
2023/11/21 01:47:04;;;;;;;22.75;11.77;;;10.20;92.20;;;;;;4994525;28;20033;-31
2023/11/21 01:49:33;;;;;;;19.67;11.50;;;10.20;92.30;;;;;;4994137;28;20038;-31
2023/11/21 01:51:59;;;;;;;18.75;11.23;;;10.20;92.30;;;;;;4994264;28;20027;-33
2023/11/21 01:54:25;;;;;;;19.92;11.63;;;10.20;92.30;;;;;;4994225;28;20034;-35
2023/11/21 01:56:51;;;;;;;17.40;11.07;;;10.20;92.20;;;;;;4994204;28;20077;-33
2023/11/21 01:59:22;;;;;;;18.77;11.70;;;10.20;92.50;;;;;;4994055;28;20023;-36
2023/11/21 02:01:50;;;;;;;18.83;11.60;;;10.20;92.20;;;;;;4993848;28;20522;-36
2023/11/21 02:04:16;;;;;;;19.40;11.70;;;10.20;92.20;;;;;;4994110;28;20057;-33
2023/11/21 02:06:41;;;;;;;21.05;11.95;;;10.20;92.20;;;;;;4994020;28;20026;-37
2023/11/21 02:09:08;;;;;;;19.90;11.70;;;10.20;92.20;;;;;;4993908;28;20022;-38
2023/11/21 02:11:34;;;;;;;21.83;12.43;;;10.20;92.20;;;;;;4994137;28;20033;-34
2023/11/21 02:14:00;;;;;;;20.73;12.63;;;10.20;92.20;;;;;;4993852;28;20026;-35
2023/11/21 02:16:26;;;;;;;21.73;12.18;;;10.20;92.20;;;;;;4993986;28;20025;-32
2023/11/21 02:18:52;;;;;;;22.02;12.57;;;10.10;92.20;;;;;;4992993;28;20045;-31
2023/11/21 02:21:19;;;;;;;21.08;12.68;;;10.10;92.20;;;;;;4993621;28;20113;-36
2023/11/21 02:23:46;;;;;;;21.05;12.05;;;10.20;92.30;;;;;;4993901;28;20126;-33
2023/11/21 02:26:13;;;;;;;24.63;13.00;;;10.10;92.30;;;;;;4993658;28;20034;-37
2023/11/21 02:28:39;;;;;;;21.02;12.65;;;10.10;92.30;;;;;;4993397;28;20073;-33
2023/11/21 02:31:07;;;;;;;23.48;13.50;;;10.10;92.30;;;;;;4993751;28;20063;-32
2023/11/21 02:33:33;;;;;;;22.13;12.18;;;10.10;92.20;;;;;;4993707;28;20397;-33
2023/11/21 02:36:00;;;;;;;22.08;12.65;;;10.10;92.20;;;;;;4993549;28;20034;-36
2023/11/21 02:38:25;;;;;;;23.02;13.23;;;10.10;92.30;;;;;;4993339;28;20030;-35
2023/11/21 02:40:51;;;;;;;23.00;13.38;;;10.10;92.20;;;;;;4993453;28;20109;-34
2023/11/21 02:43:17;;;;;;;20.33;12.15;;;10.10;92.20;;;;;;4993404;28;20038;-35
2023/11/21 02:45:42;;;;;;;26.80;13.77;;;10.10;92.20;;;;;;4993305;28;20049;-35
2023/11/21 02:48:08;;;;;;;25.98;12.80;;;10.20;92.20;;;;;;4993033;28;20034;-34
2023/11/21 02:50:35;;;;;;;32.53;14.13;;;10.20;92.20;;;;;;4993136;28;20454;-40
2023/11/21 02:53:01;;;;;;;32.38;13.25;;;10.20;92.20;;;;;;4993063;28;20035;-38
2023/11/21 02:55:27;;;;;;;28.65;13.90;;;10.20;92.20;;;;;;4993179;28;20368;-38
2023/11/21 02:57:56;;;;;;;37.30;13.13;;;10.20;92.20;;;;;;4993160;28;20057;-36
2023/11/21 03:00:24;;;;;;;26.48;12.63;;;10.10;92.20;;;;;;4992910;28;20080;-36
2023/11/21 03:02:49;;;;;;;24.95;13.13;;;10.10;92.20;;;;;;4993070;28;20533;-39
2023/11/21 03:05:15;;;;;;;29.67;12.63;;;10.10;92.30;;;;;;4993094;28;20038;-34
2023/11/21 03:07:40;;;;;;;38.80;13.30;;;10.10;92.30;;;;;;4992973;28;20092;-37
2023/11/21 03:10:10;;;;;;;21.23;11.93;;;10.10;92.20;;;;;;4992703;28;20109;-36
2023/11/21 03:12:39;;;;;;;17.90;11.52;;;10.10;92.30;;;;;;4992912;28;20042;-34
2023/11/21 03:15:06;;;;;;;19.73;11.77;;;10.00;92.30;;;;;;4992895;28;20034;-33
2023/11/21 03:17:33;;;;;;;20.95;11.15;;;10.00;92.30;;;;;;4992771;28;20034;-36
2023/11/21 03:19:59;;;;;;;40.33;13.15;;;10.00;92.30;;;;;;4992509;28;20030;-31
2023/11/21 03:22:26;;;;;;;43.90;12.30;;;10.00;92.30;;;;;;4992815;28;20453;-31
2023/11/21 03:24:52;;;;;;;22.10;12.02;;;10.00;92.30;;;;;;4992678;28;20506;-35
2023/11/21 03:27:18;;;;;;;28.85;12.98;;;9.90;92.50;;;;;;4992615;28;20446;-35
2023/11/21 03:29:44;;;;;;;40.72;13.68;;;9.90;92.30;;;;;;4992321;28;20054;-32
2023/11/21 03:32:11;;;;;;;29.80;12.80;;;9.90;92.30;;;;;;4992775;28;20338;-31
2023/11/21 03:34:56;;;;;;;30.08;13.80;;;9.90;92.30;;;;;;4992592;28;20368;-34
2023/11/21 03:37:22;;;;;;;23.67;13.00;;;9.90;92.30;;;;;;4992398;28;20478;-32
2023/11/21 03:39:48;;;;;;;23.23;12.70;;;9.80;92.30;;;;;;4992314;28;20041;-33
2023/11/21 03:42:13;;;;;;;21.33;12.48;;;9.80;92.40;;;;;;4992438;28;20031;-33
2023/11/21 03:44:39;;;;;;;21.00;11.85;;;9.90;92.40;;;;;;4992290;28;20061;-36
2023/11/21 03:47:05;;;;;;;26.98;13.63;;;9.90;92.40;;;;;;4992117;28;20395;-36
2023/11/21 03:49:31;;;;;;;20.40;12.30;;;9.90;92.40;;;;;;4992209;28;20113;-33
2023/11/21 03:51:56;;;;;;;20.42;12.00;;;9.90;92.40;;;;;;4992166;28;20034;-31
2023/11/21 03:54:22;;;;;;;20.60;12.75;;;9.90;92.40;;;;;;4992461;28;20062;-32
2023/11/21 03:56:47;;;;;;;21.42;12.73;;;10.00;92.40;;;;;;4992274;28;20041;-35
2023/11/21 03:59:13;;;;;;;21.55;12.48;;;10.00;92.40;;;;;;4992005;28;20462;-38
2023/11/21 04:01:39;;;;;;;21.70;12.93;;;10.00;92.30;;;;;;4992086;28;20027;-37
2023/11/21 04:04:04;;;;;;;20.08;12.38;;;10.00;92.30;;;;;;4992143;28;20125;-36
2023/11/21 04:06:32;;;;;;;20.90;12.50;;;10.00;92.30;;;;;;4992204;28;20034;-34
2023/11/21 04:08:58;;;;;;;22.08;12.30;;;10.00;92.30;;;;;;4991918;28;20053;-32
2023/11/21 04:11:24;;;;;;;21.55;11.93;;;10.00;92.30;;;;;;4992048;28;20151;-32
2023/11/21 04:13:49;;;;;;;23.38;12.32;;;10.00;92.40;;;;;;4991906;28;20144;-35
2023/11/21 04:16:15;;;;;;;19.65;12.00;;;10.00;92.40;;;;;;4992063;28;20135;-32
2023/11/21 04:18:40;;;;;;;21.13;12.43;;;10.00;92.30;;;;;;4991834;28;20117;-35
2023/11/21 04:21:07;;;;;;;21.33;12.68;;;10.00;92.40;;;;;;4991923;28;20125;-33
2023/11/21 04:23:33;;;;;;;21.70;12.85;;;9.90;92.30;;;;;;4991985;28;20049;-32
2023/11/21 04:25:59;;;;;;;23.00;13.30;;;10.00;92.40;;;;;;4991914;28;20026;-32
2023/11/21 04:28:24;;;;;;;22.25;12.70;;;10.00;92.40;;;;;;4991633;28;20035;-36
2023/11/21 04:30:50;;;;;;;26.70;13.10;;;10.00;92.40;;;;;;4991868;28;20085;-34
2023/11/21 04:33:16;;;;;;;22.48;13.35;;;10.00;92.30;;;;;;4992089;28;20038;-33
2023/11/21 04:35:42;;;;;;;21.60;12.40;;;10.00;92.30;;;;;;4991867;28;20490;-37
2023/11/21 04:38:07;;;;;;;25.25;11.98;;;10.00;92.30;;;;;;4991890;28;20081;-41
2023/11/21 04:40:33;;;;;;;21.27;11.98;;;10.00;92.40;;;;;;4991880;28;20033;-35
2023/11/21 04:42:58;;;;;;;20.77;12.55;;;10.00;92.40;;;;;;4993892;28;20145;-38
2023/11/21 04:45:24;;;;;;;18.13;11.68;;;10.00;92.30;;;;;;4995593;28;20045;-38
2023/11/21 04:47:50;;;;;;;21.08;11.90;;;10.00;92.30;;;;;;4995470;28;20041;-37
2023/11/21 04:50:15;;;;;;;21.80;11.07;;;10.00;92.30;;;;;;4995667;28;20392;-39
2023/11/21 04:52:41;;;;;;;18.35;10.95;;;10.00;92.30;;;;;;4995379;28;20030;-31
2023/11/21 04:55:09;;;;;;;20.70;11.20;;;9.90;92.30;;;;;;4995836;28;20489;-32
2023/11/21 04:57:36;;;;;;;19.58;11.35;;;10.00;92.30;;;;;;4995632;28;20340;-33
2023/11/21 05:00:05;;;;;;;19.80;11.18;;;9.90;92.30;;;;;;4995232;28;20126;-36
2023/11/21 05:02:31;;;;;;;18.48;11.60;;;9.90;92.50;;;;;;4995592;28;20041;-31
2023/11/21 05:04:58;;;;;;;19.15;11.73;;;9.90;92.20;;;;;;4995642;28;20027;-31
2023/11/21 05:07:23;;;;;;;19.00;11.02;;;9.90;92.30;;;;;;4995227;28;20523;-36
2023/11/21 05:09:50;;;;;;;14.50;10.10;;;9.90;92.30;;;;;;4995318;28;20152;-32
2023/11/21 05:12:15;;;;;;;15.52;10.45;;;9.80;92.30;;;;;;4995562;28;20058;-37
2023/11/21 05:14:41;;;;;;;14.65;10.07;;;9.80;92.30;;;;;;4995154;28;20120;-31
2023/11/21 05:17:07;;;;;;;13.27;9.43;;;9.80;92.30;;;;;;4994964;28;20026;-32
2023/11/21 05:19:34;;;;;;;12.38;8.75;;;9.90;92.40;;;;;;4995147;28;20368;-39
2023/11/21 05:22:00;;;;;;;11.43;8.50;;;9.90;92.40;;;;;;4995058;28;20383;-33
2023/11/21 05:24:26;;;;;;;10.85;8.05;;;9.90;92.50;;;;;;4995120;28;20022;-39
2023/11/21 05:26:52;;;;;;;11.52;8.38;;;9.90;92.30;;;;;;4995648;28;20034;-31
2023/11/21 05:29:18;;;;;;;10.55;7.85;;;9.90;92.40;;;;;;4994876;28;20477;-33
2023/11/21 05:31:43;;;;;;;10.85;8.13;;;9.90;92.40;;;;;;4994811;28;20023;-33
2023/11/21 05:34:09;;;;;;;10.40;7.68;;;9.90;92.40;;;;;;4995090;28;20026;-29
2023/11/21 05:36:35;;;;;;;12.20;8.73;;;9.90;92.40;;;;;;4995036;28;20065;-29
2023/11/21 05:39:00;;;;;;;12.07;8.20;;;9.80;92.40;;;;;;4994717;28;20018;-33
2023/11/21 05:41:26;;;;;;;12.10;7.78;;;9.90;92.40;;;;;;4994636;28;20061;-30
2023/11/21 05:43:51;;;;;;;12.15;8.95;;;9.90;92.40;;;;;;4994630;28;20025;-32
2023/11/21 05:46:18;;;;;;;12.10;8.45;;;9.90;92.40;;;;;;4994491;28;20034;-34
2023/11/21 05:48:43;;;;;;;12.57;8.68;;;9.90;92.50;;;;;;4994288;28;20043;-35
2023/11/21 05:51:09;;;;;;;14.15;9.02;;;9.90;92.50;;;;;;4994461;28;20026;-31
2023/11/21 05:53:34;;;;;;;13.43;9.15;;;9.90;92.40;;;;;;4993530;28;20102;-31
2023/11/21 05:56:00;;;;;;;13.50;9.15;;;9.90;92.40;;;;;;4994208;28;20026;-34
2023/11/21 05:58:26;;;;;;;13.90;8.88;;;9.90;92.40;;;;;;4994166;28;20054;-34
2023/11/21 06:00:51;;;;;;;13.60;9.07;;;9.90;92.40;;;;;;4994268;28;20093;-30
2023/11/21 06:03:17;;;;;;;14.57;9.32;;;9.90;92.50;;;;;;4994307;28;20026;-31
2023/11/21 06:05:43;;;;;;;14.05;9.90;;;10.00;92.50;;;;;;4994195;28;20037;-30
2023/11/21 06:08:09;;;;;;;13.98;10.00;;;10.00;92.50;;;;;;4994108;28;20386;-32
2023/11/21 06:10:34;;;;;;;12.80;8.63;;;10.00;92.50;;;;;;4994277;28;20026;-30
2023/11/21 06:13:00;;;;;;;14.32;9.32;;;10.00;92.50;;;;;;4994039;28;20038;-34
2023/11/21 06:15:25;;;;;;;14.98;9.23;;;10.00;92.50;;;;;;4994035;28;20030;-29
2023/11/21 06:17:52;;;;;;;15.95;9.93;;;10.00;92.50;;;;;;4993909;28;20019;-28
2023/11/21 06:20:19;;;;;;;15.65;10.65;;;10.00;92.40;;;;;;4993619;28;20023;-31
2023/11/21 06:22:49;;;;;;;15.68;10.25;;;10.00;92.50;;;;;;4994102;28;20434;-28
2023/11/21 06:25:15;;;;;;;16.85;10.15;;;10.00;92.50;;;;;;4993627;28;20073;-29
2023/11/21 06:27:51;;;;;;;14.90;9.98;;;10.10;92.50;;;;;;4993784;28;20027;-32
2023/11/21 06:30:19;;;;;;;15.18;9.48;;;10.00;92.40;;;;;;4993390;28;20049;-30
2023/11/21 06:32:45;;;;;;;15.57;10.77;;;10.00;92.40;;;;;;4993358;28;20058;-31
2023/11/21 06:35:11;;;;;;;17.98;10.63;;;10.10;92.50;;;;;;4993897;28;20102;-29
2023/11/21 06:37:37;;;;;;;16.52;10.05;;;10.10;92.50;;;;;;4993729;28;20505;-31
2023/11/21 06:40:06;;;;;;;14.88;9.90;;;10.10;92.50;;;;;;4993442;28;20031;-30
2023/11/21 06:42:33;;;;;;;13.00;9.43;;;10.10;92.50;;;;;;4993612;28;20138;-28
2023/11/21 06:44:59;;;;;;;14.10;9.10;;;10.00;92.40;;;;;;4993416;28;20029;-31
2023/11/21 06:47:25;;;;;;;12.75;9.30;;;10.10;92.50;;;;;;4993214;28;20030;-48
2023/11/21 06:49:52;;;;;;;21.40;10.95;;;10.00;92.50;;;;;;4992776;28;20098;-37
2023/11/21 06:52:18;;;;;;;16.45;10.15;;;10.00;92.50;;;;;;4993221;28;20022;-32
2023/11/21 06:54:45;;;;;;;18.00;9.95;;;10.10;92.60;;;;;;4993238;28;20475;-31
2023/11/21 06:57:11;;;;;;;15.27;9.60;;;10.00;92.50;;;;;;4993101;28;20072;-29
2023/11/21 06:59:36;;;;;;;14.55;9.43;;;10.10;92.50;;;;;;4993005;28;20060;-38
2023/11/21 07:02:02;;;;;;;12.25;9.05;;;10.00;92.50;;;;;;4993243;28;20065;-33
2023/11/21 07:04:28;;;;;;;14.57;9.70;;;10.10;92.60;;;;;;4993194;28;20084;-30
2023/11/21 07:06:54;;;;;;;17.50;11.45;;;10.10;92.60;;;;;;4993015;28;20018;-31
2023/11/21 07:09:23;;;;;;;20.08;11.52;;;10.10;92.60;;;;;;4993027;28;20479;-37
2023/11/21 07:11:49;;;;;;;21.60;11.18;;;10.10;92.60;;;;;;4993207;28;20021;-33
2023/11/21 07:14:15;;;;;;;21.63;11.05;;;10.10;92.60;;;;;;4992968;28;20085;-33
2023/11/21 07:16:41;;;;;;;17.95;10.55;;;10.10;92.60;;;;;;4992909;28;20114;-38
2023/11/21 07:19:07;;;;;;;15.90;11.10;;;10.10;92.60;;;;;;4993153;28;20372;-32
2023/11/21 07:21:33;;;;;;;16.60;10.35;;;10.20;92.60;;;;;;4992575;28;20106;-37
2023/11/21 07:24:03;;;;;;;18.48;10.45;;;10.20;92.60;;;;;;4992784;28;20026;-36
2023/11/21 07:26:29;;;;;;;19.17;10.00;;;10.20;92.60;;;;;;4993042;28;20615;-40
2023/11/21 07:28:58;;;;;;;16.88;9.85;;;10.20;92.60;;;;;;4992540;28;20383;-35
2023/11/21 07:31:24;;;;;;;15.82;10.73;;;10.20;92.60;;;;;;4992736;28;20109;-35
2023/11/21 07:33:50;;;;;;;16.30;10.27;;;10.20;92.60;;;;;;4992893;28;20101;-29
2023/11/21 07:36:18;;;;;;;17.95;10.50;;;10.20;92.60;;;;;;4992503;28;20014;-29
2023/11/21 07:38:44;;;;;;;18.13;10.85;;;10.20;92.60;;;;;;4992601;28;20022;-29
2023/11/21 07:41:10;;;;;;;15.80;10.18;;;10.20;92.60;;;;;;4992887;28;20065;-30
2023/11/21 07:43:36;;;;;;;17.45;10.95;;;10.20;92.60;;;;;;4991141;28;20457;-36
2023/11/21 07:46:03;;;;;;;18.30;11.32;;;10.20;92.60;;;;;;4992615;28;20030;-33
2023/11/21 07:48:32;;;;;;;17.25;11.38;;;10.30;92.60;;;;;;4992505;28;20368;-35
2023/11/21 07:50:58;;;;;;;18.05;10.88;;;10.30;92.60;;;;;;4992327;28;20038;-30
2023/11/21 07:53:29;;;;;;;16.42;11.20;;;10.30;92.60;;;;;;4992425;28;20026;-30
2023/11/21 07:55:55;;;;;;;16.85;10.52;;;10.30;92.60;;;;;;4992644;28;20364;-30
2023/11/21 07:58:21;;;;;;;18.88;11.65;;;10.40;92.60;;;;;;4992298;28;20022;-29
2023/11/21 08:00:46;;;;;;;17.05;10.85;;;10.40;92.60;;;;;;4992544;28;20027;-32
2023/11/21 08:03:15;;;;;;;19.23;11.23;;;10.40;92.60;;;;;;4992425;28;20494;-30
2023/11/21 08:05:41;;;;;;;22.00;12.18;;;10.30;92.60;;;;;;4992220;28;20033;-31
2023/11/21 08:08:07;;;;;;;20.27;12.20;;;10.30;92.50;;;;;;4992269;28;20034;-33
2023/11/21 08:10:33;;;;;;;21.95;11.13;;;10.30;92.50;;;;;;4992373;28;20030;-32
2023/11/21 08:12:59;;;;;;;16.75;10.50;;;10.30;92.60;;;;;;4992372;28;20029;-33
2023/11/21 08:15:25;;;;;;;20.25;11.63;;;10.40;92.60;;;;;;4992400;28;20067;-28
2023/11/21 08:17:50;;;;;;;16.45;10.95;;;10.40;92.60;;;;;;4994152;28;20492;-33
2023/11/21 08:20:16;;;;;;;21.48;12.02;;;10.40;92.60;;;;;;4996044;28;20386;-34
2023/11/21 08:22:44;;;;;;;21.52;12.27;;;10.40;92.60;;;;;;4996435;28;20069;-32
2023/11/21 08:25:10;;;;;;;18.48;11.32;;;10.50;92.60;;;;;;4996300;28;20073;-30
2023/11/21 08:27:35;;;;;;;20.50;11.77;;;10.50;92.60;;;;;;4996010;28;20467;-30
2023/11/21 08:30:03;;;;;;;21.58;11.57;;;10.60;92.60;;;;;;4995609;28;20042;-30
2023/11/21 08:32:32;;;;;;;18.30;11.77;;;10.50;92.60;;;;;;4995917;28;20025;-33
2023/11/21 08:34:57;;;;;;;20.80;11.90;;;10.60;92.60;;;;;;4996137;28;20030;-31
2023/11/21 08:37:23;;;;;;;20.67;12.35;;;10.60;92.60;;;;;;4995846;28;20562;-32
2023/11/21 08:39:49;;;;;;;19.70;11.82;;;10.60;92.60;;;;;;4995995;28;20032;-31
2023/11/21 08:42:15;;;;;;;19.58;11.80;;;10.60;92.60;;;;;;4995247;28;20355;-29
2023/11/21 08:44:41;;;;;;;18.65;11.50;;;10.60;92.60;;;;;;4994643;28;20019;-34
2023/11/21 08:47:07;;;;;;;20.55;12.15;;;10.60;92.60;;;;;;4994469;28;20093;-35
2023/11/21 08:49:32;;;;;;;21.88;12.48;;;10.70;92.60;;;;;;4994512;28;20038;-32
2023/11/21 08:51:59;;;;;;;20.27;12.38;;;10.80;92.60;;;;;;4992944;28;20018;-34
2023/11/21 08:54:26;;;;;;;20.13;11.65;;;10.80;92.60;;;;;;4994066;28;20065;-33
2023/11/21 08:56:52;;;;;;;24.27;12.93;;;10.80;92.50;;;;;;4994298;28;20493;-32
2023/11/21 08:59:19;;;;;;;23.63;13.25;;;10.80;92.50;;;;;;4994002;28;20014;-30
2023/11/21 09:01:45;;;;;;;21.88;12.65;;;10.80;92.50;;;;;;4995668;28;20133;-34
2023/11/21 09:04:11;;;;;;;22.83;12.60;;;10.90;92.50;;;;;;4995369;28;20480;-32
2023/11/21 09:06:36;;;;;;;23.38;13.43;;;10.90;92.50;;;;;;4995346;28;20109;-33
2023/11/21 09:09:04;;;;;;;19.05;12.07;;;10.90;92.50;;;;;;4995057;28;20026;-30
2023/11/21 09:11:33;;;;;;;20.17;12.20;;;11.00;92.50;;;;;;4995370;28;20030;-30
2023/11/21 09:13:59;;;;;;;19.40;11.63;;;11.00;92.40;;;;;;4993881;28;20471;-32
2023/11/21 09:16:25;;;;;;;17.85;11.55;;;11.00;92.40;;;;;;4995307;28;20034;-31
2023/11/21 09:18:50;;;;;;;22.55;13.00;;;11.00;92.50;;;;;;4995116;28;20383;-34
2023/11/21 09:21:16;;;;;;;20.45;11.93;;;11.00;92.40;;;;;;4995286;28;20359;-31
2023/11/21 09:23:46;;;;;;;21.50;12.77;;;10.90;92.40;;;;;;4994863;28;20022;-30
2023/11/21 09:26:12;;;;;;;23.05;12.20;;;11.00;92.40;;;;;;4994933;28;20369;-30
2023/11/21 09:28:38;;;;;;;23.35;12.90;;;11.00;92.40;;;;;;4994673;28;20034;-30
2023/11/21 09:31:04;;;;;;;23.58;13.73;;;11.00;92.40;;;;;;4994891;28;20089;-30
2023/11/21 09:33:31;;;;;;;24.88;13.48;;;11.00;92.40;;;;;;4994883;28;20034;-30
2023/11/21 09:35:57;;;;;;;24.67;13.38;;;11.00;92.50;;;;;;4994835;28;20022;-32
2023/11/21 09:38:23;;;;;;;24.33;13.02;;;11.00;92.50;;;;;;4994719;28;20038;-31
2023/11/21 09:40:50;;;;;;;22.38;13.23;;;11.00;92.50;;;;;;4995062;28;20033;-31
2023/11/21 09:43:19;;;;;;;22.27;13.18;;;11.00;92.50;;;;;;4994831;28;20097;-35
2023/11/21 09:45:47;;;;;;;21.45;13.00;;;11.10;92.50;;;;;;4995249;28;20019;-44
2023/11/21 09:48:14;;;;;;;24.02;12.82;;;11.10;92.50;;;;;;4994722;28;20044;-31
2023/11/21 09:50:42;;;;;;;22.35;13.68;;;11.10;92.50;;;;;;4994732;28;20032;-32
2023/11/21 09:53:23;;;;;;;22.73;13.18;;;11.20;92.50;;;;;;4994477;28;20028;-31
2023/11/21 09:55:52;;;;;;;21.40;12.70;;;11.20;92.70;;;;;;4994742;28;20304;-33
2023/11/21 09:58:19;;;;;;;23.17;13.38;;;11.20;92.40;;;;;;4994572;28;20081;-29
2023/11/21 10:00:46;;;;;;;23.45;12.55;;;11.20;92.40;;;;;;4994620;28;20069;-29
2023/11/21 10:03:12;;;;;;;21.55;12.65;;;11.30;92.50;;;;;;4994240;28;20084;-31
2023/11/21 10:05:39;;;;;;;19.13;11.48;;;11.30;92.50;;;;;;4994381;28;20054;-31
2023/11/21 10:08:12;;;;;;;17.50;11.35;;;11.50;92.70;;;;;;4993726;28;20041;-32
2023/11/21 10:10:44;;;;;;;17.33;10.57;;;11.60;92.40;;;;;;4994400;28;20463;-33
2023/11/21 10:13:12;;;;;;;16.05;10.20;;;11.60;92.30;;;;;;4994385;28;20497;-33
2023/11/21 10:15:38;;;;;;;14.35;9.98;;;11.70;92.30;;;;;;4994299;28;20041;-34
2023/11/21 10:18:06;;;;;;;13.75;9.65;;;11.80;92.20;;;;;;4993970;28;20504;-34
2023/11/21 10:20:33;;;;;;;12.93;8.45;;;11.80;92.20;;;;;;4993806;28;20097;-34
2023/11/21 10:23:02;;;;;;;12.77;8.80;;;11.90;92.10;;;;;;4994302;28;20557;-30
2023/11/21 10:25:27;;;;;;;14.13;9.45;;;11.90;92.10;;;;;;4994082;28;20022;-32
2023/11/21 10:28:05;;;;;;;13.00;8.30;;;11.90;92.10;;;;;;4993801;28;20044;-29
2023/11/21 10:30:36;;;;;;;10.13;7.05;;;11.90;92.10;;;;;;4993547;28;20043;-30
2023/11/21 10:33:06;;;;;;;11.73;7.82;;;11.90;92.00;;;;;;4993686;28;20034;-31
2023/11/21 10:35:51;;;;;;;12.05;7.70;;;11.80;92.00;;;;;;4992590;28;20116;-34
2023/11/21 10:38:17;;;;;;;11.02;7.30;;;11.80;92.10;;;;;;4993656;28;20022;-36
2023/11/21 10:40:44;;;;;;;11.32;7.50;;;11.80;92.10;;;;;;4992991;28;20027;-32
2023/11/21 10:43:10;;;;;;;11.10;7.28;;;11.80;92.20;;;;;;4993505;28;20053;-31
2023/11/21 10:45:37;;;;;;;12.00;7.38;;;11.80;92.20;;;;;;4993532;28;20026;-29
2023/11/21 10:48:08;;;;;;;12.18;7.57;;;11.90;92.20;;;;;;4993252;28;20061;-37
2023/11/21 10:50:35;;;;;;;9.40;6.93;;;11.90;92.20;;;;;;4993696;28;20701;-35
2023/11/21 10:53:03;;;;;;;10.38;7.25;;;12.00;92.10;;;;;;4993508;28;20037;-35
2023/11/21 10:55:29;;;;;;;11.88;7.78;;;11.90;92.00;;;;;;4993407;28;20062;-32
2023/11/21 10:57:59;;;;;;;10.70;7.10;;;11.90;92.00;;;;;;4993252;28;20033;-32
2023/11/21 11:00:27;;;;;;;11.65;8.27;;;11.80;92.10;;;;;;4993070;28;20022;-32
2023/11/21 11:02:56;;;;;;;13.07;8.00;;;11.70;92.10;;;;;;4992834;28;20034;-35
2023/11/21 11:05:25;;;;;;;13.70;8.48;;;11.70;92.10;;;;;;4993366;28;20027;-31
2023/11/21 11:08:12;;;;;;;13.48;8.40;;;11.60;92.20;;;;;;4993295;28;20026;-30
2023/11/21 11:10:38;;;;;;;12.38;7.85;;;11.50;92.50;;;;;;4992471;28;20121;-32
2023/11/21 11:13:06;;;;;;;15.13;8.40;;;11.50;92.30;;;;;;4991521;28;20085;-39
2023/11/21 11:15:33;;;;;;;13.90;8.95;;;11.40;92.30;;;;;;4993256;28;20030;-31
2023/11/21 11:17:59;;;;;;;14.43;9.15;;;11.40;92.40;;;;;;4993158;28;20510;-31
2023/11/21 11:20:30;;;;;;;17.70;10.88;;;11.30;92.40;;;;;;4992564;28;20080;-30
2023/11/21 11:23:11;;;;;;;15.25;10.07;;;11.30;92.40;;;;;;4992708;28;20034;-29
2023/11/21 11:25:49;;;;;;;14.70;9.85;;;11.20;92.40;;;;;;4992681;28;20031;-33
2023/11/21 11:28:21;;;;;;;15.90;9.25;;;11.20;92.50;;;;;;4992645;28;20081;-30
2023/11/21 11:31:00;;;;;;;15.50;9.65;;;11.10;92.50;;;;;;4992945;28;20036;-29
2023/11/21 11:33:48;;;;;;;14.32;8.40;;;11.10;92.60;;;;;;4992596;28;20038;-30
2023/11/21 11:36:27;;;;;;;13.88;8.45;;;11.10;92.70;;;;;;4992834;28;20041;-33
2023/11/21 11:38:53;;;;;;;12.45;8.13;;;11.10;92.70;;;;;;4992447;28;20227;-29
2023/11/21 11:41:32;;;;;;;16.17;8.40;;;11.10;92.70;;;;;;4992807;28;20054;-29
2023/11/21 11:43:59;;;;;;;13.05;8.27;;;11.10;92.60;;;;;;4993136;28;20089;-30
2023/11/21 11:46:42;;;;;;;13.02;8.10;;;11.10;92.70;;;;;;4992181;28;20057;-29
2023/11/21 11:49:08;;;;;;;12.43;7.45;;;11.10;92.70;;;;;;4992444;28;20030;-30
2023/11/21 11:51:35;;;;;;;11.88;7.80;;;11.10;92.70;;;;;;4991623;28;20026;-29
2023/11/21 11:54:01;;;;;;;11.13;7.55;;;11.20;92.80;;;;;;4992126;28;20121;-31
2023/11/21 11:56:27;;;;;;;11.48;7.47;;;11.20;92.70;;;;;;4992364;28;20030;-28
2023/11/21 11:58:58;;;;;;;11.35;8.15;;;11.30;92.80;;;;;;4992483;28;20394;-29
2023/11/21 12:01:26;;;;;;;13.10;8.15;;;11.30;92.80;;;;;;4992453;28;20023;-29
2023/11/21 12:04:33;;;;;;;11.98;7.78;;;11.30;92.70;;;;;;4992288;28;20077;-34
2023/11/21 12:07:03;;;;;;;11.65;7.15;;;11.30;92.70;;;;;;4992528;28;20030;-31
2023/11/21 12:09:29;;;;;;;11.85;7.80;;;11.30;92.70;;;;;;4992344;28;20026;-35
2023/11/21 12:11:58;;;;;;;10.10;6.63;;;11.30;92.70;;;;;;4992094;28;20145;-37
2023/11/21 12:14:25;;;;;;;10.57;6.60;;;11.40;92.70;;;;;;4992073;28;20045;-33
2023/11/21 12:16:51;;;;;;;9.60;6.78;;;11.40;92.60;;;;;;4992090;28;20023;-30
2023/11/21 12:19:17;;;;;;;10.35;7.25;;;11.30;92.60;;;;;;4991927;28;20105;-30
2023/11/21 12:21:44;;;;;;;8.73;6.18;;;11.30;92.70;;;;;;4992166;28;20068;-33
2023/11/21 12:24:09;;;;;;;9.20;6.10;;;11.40;92.70;;;;;;4992560;28;20034;-30
2023/11/21 12:26:39;;;;;;;12.15;7.82;;;11.30;92.60;;;;;;4992008;28;20027;-30
2023/11/21 12:29:07;;;;;;;16.05;8.85;;;11.30;92.60;;;;;;4991812;28;20050;-30
2023/11/21 12:31:33;;;;;;;16.38;9.75;;;11.20;92.60;;;;;;4992218;28;20041;-30